sensor_id;sensor_type;location;lat;lon;timestamp;P1;durP1;ratioP1;P2;durP2;ratioP2
51224;SDS011;37298;42.688;23.312;2022-12-29T00:02:09;29.23;;;19.00;;
51224;SDS011;37298;42.688;23.312;2022-12-29T00:04:36;27.17;;;18.30;;
51224;SDS011;37298;42.688;23.312;2022-12-29T00:07:03;37.85;;;23.48;;
51224;SDS011;37298;42.688;23.312;2022-12-29T00:09:30;32.42;;;21.05;;
51224;SDS011;37298;42.688;23.312;2022-12-29T00:11:57;35.17;;;21.25;;
51224;SDS011;37298;42.688;23.312;2022-12-29T00:14:24;33.67;;;20.38;;
51224;SDS011;37298;42.688;23.312;2022-12-29T00:17:09;36.22;;;20.98;;
51224;SDS011;37298;42.688;23.312;2022-12-29T00:19:36;34.08;;;20.80;;
51224;SDS011;37298;42.688;23.312;2022-12-29T00:22:21;34.83;;;21.60;;
51224;SDS011;37298;42.688;23.312;2022-12-29T00:25:05;32.85;;;18.90;;
51224;SDS011;37298;42.688;23.312;2022-12-29T00:27:51;29.42;;;19.00;;
51224;SDS011;37298;42.688;23.312;2022-12-29T00:30:35;27.80;;;18.60;;
51224;SDS011;37298;42.688;23.312;2022-12-29T00:33:22;33.58;;;19.15;;
51224;SDS011;37298;42.688;23.312;2022-12-29T00:36:11;29.38;;;19.17;;
51224;SDS011;37298;42.688;23.312;2022-12-29T00:38:40;34.22;;;21.02;;
51224;SDS011;37298;42.688;23.312;2022-12-29T00:41:27;34.15;;;20.38;;
51224;SDS011;37298;42.688;23.312;2022-12-29T00:44:12;40.92;;;22.75;;
51224;SDS011;37298;42.688;23.312;2022-12-29T00:46:39;38.63;;;24.00;;
51224;SDS011;37298;42.688;23.312;2022-12-29T00:49:09;37.75;;;23.65;;
51224;SDS011;37298;42.688;23.312;2022-12-29T00:51:54;47.40;;;24.98;;
51224;SDS011;37298;42.688;23.312;2022-12-29T00:54:21;37.88;;;23.55;;
51224;SDS011;37298;42.688;23.312;2022-12-29T00:56:48;41.33;;;24.13;;
51224;SDS011;37298;42.688;23.312;2022-12-29T00:59:16;40.47;;;23.90;;
51224;SDS011;37298;42.688;23.312;2022-12-29T01:01:44;46.78;;;25.52;;
51224;SDS011;37298;42.688;23.312;2022-12-29T01:04:12;29.73;;;19.85;;
51224;SDS011;37298;42.688;23.312;2022-12-29T01:06:39;32.72;;;20.38;;
51224;SDS011;37298;42.688;23.312;2022-12-29T01:09:07;35.30;;;21.13;;
51224;SDS011;37298;42.688;23.312;2022-12-29T01:11:51;36.55;;;21.50;;
51224;SDS011;37298;42.688;23.312;2022-12-29T01:14:18;35.22;;;20.65;;
51224;SDS011;37298;42.688;23.312;2022-12-29T01:16:45;38.25;;;20.33;;
51224;SDS011;37298;42.688;23.312;2022-12-29T01:19:14;31.73;;;19.70;;
51224;SDS011;37298;42.688;23.312;2022-12-29T01:21:41;32.13;;;20.25;;
51224;SDS011;37298;42.688;23.312;2022-12-29T01:24:08;34.85;;;19.88;;
51224;SDS011;37298;42.688;23.312;2022-12-29T01:26:35;30.77;;;18.90;;
51224;SDS011;37298;42.688;23.312;2022-12-29T01:29:02;30.67;;;18.90;;
51224;SDS011;37298;42.688;23.312;2022-12-29T01:31:29;28.60;;;18.65;;
51224;SDS011;37298;42.688;23.312;2022-12-29T01:33:56;30.13;;;18.98;;
51224;SDS011;37298;42.688;23.312;2022-12-29T01:36:24;26.58;;;18.05;;
51224;SDS011;37298;42.688;23.312;2022-12-29T01:38:51;25.88;;;17.52;;
51224;SDS011;37298;42.688;23.312;2022-12-29T01:41:20;29.58;;;18.23;;
51224;SDS011;37298;42.688;23.312;2022-12-29T01:46:22;24.90;;;15.50;;
51224;SDS011;37298;42.688;23.312;2022-12-29T01:48:51;27.48;;;16.88;;
51224;SDS011;37298;42.688;23.312;2022-12-29T01:51:19;24.50;;;16.33;;
51224;SDS011;37298;42.688;23.312;2022-12-29T01:53:49;21.95;;;15.30;;
51224;SDS011;37298;42.688;23.312;2022-12-29T01:56:17;24.52;;;15.65;;
51224;SDS011;37298;42.688;23.312;2022-12-29T01:58:46;25.67;;;16.42;;
51224;SDS011;37298;42.688;23.312;2022-12-29T02:01:15;23.88;;;15.45;;
51224;SDS011;37298;42.688;23.312;2022-12-29T02:03:44;24.48;;;16.02;;
51224;SDS011;37298;42.688;23.312;2022-12-29T02:06:12;25.73;;;15.77;;
51224;SDS011;37298;42.688;23.312;2022-12-29T02:08:41;28.17;;;16.27;;
51224;SDS011;37298;42.688;23.312;2022-12-29T02:11:10;29.73;;;15.98;;
51224;SDS011;37298;42.688;23.312;2022-12-29T02:13:37;26.75;;;16.65;;
51224;SDS011;37298;42.688;23.312;2022-12-29T02:16:07;23.33;;;16.20;;
51224;SDS011;37298;42.688;23.312;2022-12-29T02:18:39;29.42;;;17.77;;
51224;SDS011;37298;42.688;23.312;2022-12-29T02:24:07;27.02;;;16.17;;
51224;SDS011;37298;42.688;23.312;2022-12-29T02:29:48;24.90;;;15.52;;
51224;SDS011;37298;42.688;23.312;2022-12-29T02:32:22;26.30;;;14.93;;
51224;SDS011;37298;42.688;23.312;2022-12-29T02:34:53;25.40;;;16.55;;
51224;SDS011;37298;42.688;23.312;2022-12-29T02:37:23;22.75;;;15.68;;
51224;SDS011;37298;42.688;23.312;2022-12-29T02:39:54;24.05;;;15.45;;
51224;SDS011;37298;42.688;23.312;2022-12-29T02:42:24;27.25;;;15.73;;
51224;SDS011;37298;42.688;23.312;2022-12-29T02:44:57;25.70;;;16.17;;
51224;SDS011;37298;42.688;23.312;2022-12-29T02:47:33;23.85;;;15.82;;
51224;SDS011;37298;42.688;23.312;2022-12-29T02:50:03;25.17;;;16.38;;
51224;SDS011;37298;42.688;23.312;2022-12-29T02:52:34;22.63;;;15.13;;
51224;SDS011;37298;42.688;23.312;2022-12-29T02:55:02;20.60;;;14.63;;
51224;SDS011;37298;42.688;23.312;2022-12-29T02:57:29;23.70;;;15.80;;
51224;SDS011;37298;42.688;23.312;2022-12-29T02:59:58;23.10;;;15.63;;
51224;SDS011;37298;42.688;23.312;2022-12-29T03:02:33;21.42;;;15.05;;
51224;SDS011;37298;42.688;23.312;2022-12-29T03:05:10;24.45;;;15.77;;
51224;SDS011;37298;42.688;23.312;2022-12-29T03:07:43;22.55;;;15.73;;
51224;SDS011;37298;42.688;23.312;2022-12-29T03:10:15;22.65;;;15.55;;
51224;SDS011;37298;42.688;23.312;2022-12-29T03:12:46;22.08;;;15.15;;
51224;SDS011;37298;42.688;23.312;2022-12-29T03:15:33;24.17;;;16.70;;
51224;SDS011;37298;42.688;23.312;2022-12-29T03:18:20;28.25;;;16.13;;
51224;SDS011;37298;42.688;23.312;2022-12-29T03:20:49;24.55;;;16.30;;
51224;SDS011;37298;42.688;23.312;2022-12-29T03:25:44;25.42;;;15.93;;
51224;SDS011;37298;42.688;23.312;2022-12-29T03:28:13;25.02;;;16.75;;
51224;SDS011;37298;42.688;23.312;2022-12-29T03:30:45;24.60;;;16.35;;
51224;SDS011;37298;42.688;23.312;2022-12-29T03:33:14;23.30;;;15.65;;
51224;SDS011;37298;42.688;23.312;2022-12-29T03:38:13;29.55;;;16.65;;
51224;SDS011;37298;42.688;23.312;2022-12-29T03:40:42;29.13;;;17.17;;
51224;SDS011;37298;42.688;23.312;2022-12-29T03:43:10;31.35;;;17.90;;
51224;SDS011;37298;42.688;23.312;2022-12-29T03:45:39;25.92;;;16.77;;
51224;SDS011;37298;42.688;23.312;2022-12-29T03:48:06;26.50;;;17.08;;
51224;SDS011;37298;42.688;23.312;2022-12-29T03:50:36;27.27;;;17.75;;
51224;SDS011;37298;42.688;23.312;2022-12-29T03:53:03;25.08;;;16.55;;
51224;SDS011;37298;42.688;23.312;2022-12-29T03:55:31;24.92;;;16.58;;
51224;SDS011;37298;42.688;23.312;2022-12-29T03:57:58;29.33;;;18.65;;
51224;SDS011;37298;42.688;23.312;2022-12-29T04:00:45;27.63;;;16.98;;
51224;SDS011;37298;42.688;23.312;2022-12-29T04:03:11;25.20;;;16.85;;
51224;SDS011;37298;42.688;23.312;2022-12-29T04:05:39;27.98;;;17.95;;
51224;SDS011;37298;42.688;23.312;2022-12-29T04:08:05;29.02;;;17.88;;
51224;SDS011;37298;42.688;23.312;2022-12-29T04:10:34;28.20;;;18.75;;
51224;SDS011;37298;42.688;23.312;2022-12-29T04:13:04;30.15;;;17.70;;
51224;SDS011;37298;42.688;23.312;2022-12-29T04:15:31;27.75;;;17.90;;
51224;SDS011;37298;42.688;23.312;2022-12-29T04:17:57;31.80;;;19.23;;
51224;SDS011;37298;42.688;23.312;2022-12-29T04:20:24;32.88;;;19.67;;
51224;SDS011;37298;42.688;23.312;2022-12-29T04:23:08;35.15;;;19.15;;
51224;SDS011;37298;42.688;23.312;2022-12-29T04:25:38;30.38;;;18.77;;
51224;SDS011;37298;42.688;23.312;2022-12-29T04:28:07;30.48;;;18.60;;
51224;SDS011;37298;42.688;23.312;2022-12-29T04:30:54;29.67;;;18.83;;
51224;SDS011;37298;42.688;23.312;2022-12-29T04:33:28;33.05;;;18.15;;
51224;SDS011;37298;42.688;23.312;2022-12-29T04:35:56;33.00;;;20.33;;
51224;SDS011;37298;42.688;23.312;2022-12-29T04:38:24;29.88;;;18.75;;
51224;SDS011;37298;42.688;23.312;2022-12-29T04:40:52;32.85;;;19.52;;
51224;SDS011;37298;42.688;23.312;2022-12-29T04:43:22;31.73;;;19.35;;
51224;SDS011;37298;42.688;23.312;2022-12-29T04:46:05;40.40;;;21.25;;
51224;SDS011;37298;42.688;23.312;2022-12-29T04:48:42;34.03;;;19.73;;
51224;SDS011;37298;42.688;23.312;2022-12-29T04:51:28;32.50;;;19.80;;
51224;SDS011;37298;42.688;23.312;2022-12-29T04:53:55;34.95;;;20.25;;
51224;SDS011;37298;42.688;23.312;2022-12-29T04:56:24;33.72;;;20.45;;
51224;SDS011;37298;42.688;23.312;2022-12-29T04:58:51;34.00;;;21.80;;
51224;SDS011;37298;42.688;23.312;2022-12-29T05:01:19;34.85;;;18.92;;
51224;SDS011;37298;42.688;23.312;2022-12-29T05:03:46;32.45;;;21.65;;
51224;SDS011;37298;42.688;23.312;2022-12-29T05:06:13;32.75;;;20.38;;
51224;SDS011;37298;42.688;23.312;2022-12-29T05:08:41;31.83;;;18.67;;
51224;SDS011;37298;42.688;23.312;2022-12-29T05:11:08;34.20;;;19.90;;
51224;SDS011;37298;42.688;23.312;2022-12-29T05:13:37;30.53;;;19.57;;
51224;SDS011;37298;42.688;23.312;2022-12-29T05:16:05;34.70;;;19.67;;
51224;SDS011;37298;42.688;23.312;2022-12-29T05:18:32;31.13;;;18.90;;
51224;SDS011;37298;42.688;23.312;2022-12-29T05:20:58;32.28;;;19.40;;
51224;SDS011;37298;42.688;23.312;2022-12-29T05:23:26;28.88;;;18.08;;
51224;SDS011;37298;42.688;23.312;2022-12-29T05:25:58;32.42;;;19.25;;
51224;SDS011;37298;42.688;23.312;2022-12-29T05:28:32;28.83;;;18.13;;
51224;SDS011;37298;42.688;23.312;2022-12-29T05:31:10;34.42;;;19.02;;
51224;SDS011;37298;42.688;23.312;2022-12-29T05:33:37;34.33;;;19.13;;
51224;SDS011;37298;42.688;23.312;2022-12-29T05:36:04;33.40;;;19.08;;
51224;SDS011;37298;42.688;23.312;2022-12-29T05:38:32;30.40;;;18.33;;
51224;SDS011;37298;42.688;23.312;2022-12-29T05:40:59;35.63;;;19.95;;
51224;SDS011;37298;42.688;23.312;2022-12-29T05:43:52;29.90;;;19.60;;
51224;SDS011;37298;42.688;23.312;2022-12-29T05:46:38;41.40;;;19.95;;
51224;SDS011;37298;42.688;23.312;2022-12-29T05:49:08;32.35;;;19.48;;
51224;SDS011;37298;42.688;23.312;2022-12-29T05:55:10;39.30;;;22.10;;
51224;SDS011;37298;42.688;23.312;2022-12-29T05:57:38;39.78;;;26.13;;
51224;SDS011;37298;42.688;23.312;2022-12-29T06:00:15;48.22;;;28.63;;
51224;SDS011;37298;42.688;23.312;2022-12-29T06:02:46;48.13;;;28.27;;
51224;SDS011;37298;42.688;23.312;2022-12-29T06:05:14;43.63;;;27.05;;
51224;SDS011;37298;42.688;23.312;2022-12-29T06:07:41;46.38;;;28.40;;
51224;SDS011;37298;42.688;23.312;2022-12-29T06:10:08;42.22;;;26.55;;
51224;SDS011;37298;42.688;23.312;2022-12-29T06:12:45;48.33;;;27.35;;
51224;SDS011;37298;42.688;23.312;2022-12-29T06:15:14;38.17;;;24.73;;
51224;SDS011;37298;42.688;23.312;2022-12-29T06:17:42;35.85;;;23.17;;
51224;SDS011;37298;42.688;23.312;2022-12-29T06:20:11;38.38;;;23.23;;
51224;SDS011;37298;42.688;23.312;2022-12-29T06:22:38;40.72;;;25.17;;
51224;SDS011;37298;42.688;23.312;2022-12-29T06:25:05;43.95;;;26.27;;
51224;SDS011;37298;42.688;23.312;2022-12-29T06:27:34;42.03;;;26.77;;
51224;SDS011;37298;42.688;23.312;2022-12-29T06:30:01;44.88;;;25.45;;
51224;SDS011;37298;42.688;23.312;2022-12-29T06:32:29;45.97;;;27.30;;
51224;SDS011;37298;42.688;23.312;2022-12-29T06:35:01;46.67;;;27.75;;
51224;SDS011;37298;42.688;23.312;2022-12-29T06:37:30;55.03;;;36.20;;
51224;SDS011;37298;42.688;23.312;2022-12-29T06:39:56;59.63;;;39.25;;
51224;SDS011;37298;42.688;23.312;2022-12-29T06:42:29;59.30;;;38.30;;
51224;SDS011;37298;42.688;23.312;2022-12-29T06:45:22;68.10;;;38.83;;
51224;SDS011;37298;42.688;23.312;2022-12-29T06:47:49;51.70;;;31.75;;
51224;SDS011;37298;42.688;23.312;2022-12-29T06:50:16;60.50;;;36.45;;
51224;SDS011;37298;42.688;23.312;2022-12-29T06:52:44;56.55;;;34.33;;
51224;SDS011;37298;42.688;23.312;2022-12-29T06:55:11;42.00;;;23.95;;
51224;SDS011;37298;42.688;23.312;2022-12-29T06:57:38;43.97;;;25.23;;
51224;SDS011;37298;42.688;23.312;2022-12-29T07:00:05;45.08;;;26.55;;
51224;SDS011;37298;42.688;23.312;2022-12-29T07:02:32;40.75;;;24.92;;
51224;SDS011;37298;42.688;23.312;2022-12-29T07:05:01;44.10;;;26.00;;
51224;SDS011;37298;42.688;23.312;2022-12-29T07:07:29;36.58;;;23.83;;
51224;SDS011;37298;42.688;23.312;2022-12-29T07:09:57;40.13;;;23.50;;
51224;SDS011;37298;42.688;23.312;2022-12-29T07:12:24;40.15;;;22.95;;
51224;SDS011;37298;42.688;23.312;2022-12-29T07:14:51;31.83;;;21.55;;
51224;SDS011;37298;42.688;23.312;2022-12-29T07:17:18;31.17;;;19.30;;
51224;SDS011;37298;42.688;23.312;2022-12-29T07:19:45;25.35;;;17.00;;
51224;SDS011;37298;42.688;23.312;2022-12-29T07:22:12;26.60;;;16.65;;
51224;SDS011;37298;42.688;23.312;2022-12-29T07:24:39;30.40;;;17.50;;
51224;SDS011;37298;42.688;23.312;2022-12-29T07:27:08;25.52;;;16.83;;
51224;SDS011;37298;42.688;23.312;2022-12-29T07:29:36;24.23;;;16.52;;
51224;SDS011;37298;42.688;23.312;2022-12-29T07:32:05;27.33;;;16.02;;
51224;SDS011;37298;42.688;23.312;2022-12-29T07:34:32;27.60;;;16.90;;
51224;SDS011;37298;42.688;23.312;2022-12-29T07:36:59;32.58;;;17.38;;
51224;SDS011;37298;42.688;23.312;2022-12-29T07:39:26;32.58;;;17.70;;
51224;SDS011;37298;42.688;23.312;2022-12-29T07:41:53;28.98;;;16.45;;
51224;SDS011;37298;42.688;23.312;2022-12-29T07:44:24;27.73;;;17.65;;
51224;SDS011;37298;42.688;23.312;2022-12-29T07:47:18;28.20;;;18.55;;
51224;SDS011;37298;42.688;23.312;2022-12-29T07:49:44;28.13;;;17.88;;
51224;SDS011;37298;42.688;23.312;2022-12-29T07:52:11;34.50;;;18.95;;
51224;SDS011;37298;42.688;23.312;2022-12-29T07:54:38;32.38;;;18.88;;
51224;SDS011;37298;42.688;23.312;2022-12-29T07:57:05;30.85;;;18.83;;
51224;SDS011;37298;42.688;23.312;2022-12-29T07:59:34;32.33;;;18.45;;
51224;SDS011;37298;42.688;23.312;2022-12-29T08:02:01;31.95;;;19.33;;
51224;SDS011;37298;42.688;23.312;2022-12-29T08:04:28;30.45;;;17.70;;
51224;SDS011;37298;42.688;23.312;2022-12-29T08:06:54;30.50;;;19.15;;
51224;SDS011;37298;42.688;23.312;2022-12-29T08:09:21;26.67;;;16.73;;
51224;SDS011;37298;42.688;23.312;2022-12-29T08:11:48;30.52;;;17.98;;
51224;SDS011;37298;42.688;23.312;2022-12-29T08:14:15;30.13;;;18.73;;
51224;SDS011;37298;42.688;23.312;2022-12-29T08:16:43;30.60;;;19.33;;
51224;SDS011;37298;42.688;23.312;2022-12-29T08:19:09;27.55;;;18.27;;
51224;SDS011;37298;42.688;23.312;2022-12-29T08:21:36;27.83;;;19.13;;
51224;SDS011;37298;42.688;23.312;2022-12-29T08:24:03;32.28;;;20.40;;
51224;SDS011;37298;42.688;23.312;2022-12-29T08:26:30;32.42;;;20.67;;
51224;SDS011;37298;42.688;23.312;2022-12-29T08:28:57;31.17;;;19.73;;
51224;SDS011;37298;42.688;23.312;2022-12-29T08:31:24;30.13;;;18.10;;
51224;SDS011;37298;42.688;23.312;2022-12-29T08:33:52;28.02;;;18.67;;
51224;SDS011;37298;42.688;23.312;2022-12-29T08:36:19;31.45;;;19.92;;
51224;SDS011;37298;42.688;23.312;2022-12-29T08:38:45;31.05;;;19.05;;
51224;SDS011;37298;42.688;23.312;2022-12-29T08:41:12;31.35;;;20.98;;
51224;SDS011;37298;42.688;23.312;2022-12-29T08:43:39;30.33;;;18.95;;
51224;SDS011;37298;42.688;23.312;2022-12-29T08:46:06;28.10;;;18.80;;
51224;SDS011;37298;42.688;23.312;2022-12-29T08:48:33;27.38;;;18.30;;
51224;SDS011;37298;42.688;23.312;2022-12-29T08:51:01;27.58;;;18.42;;
51224;SDS011;37298;42.688;23.312;2022-12-29T08:53:28;25.95;;;18.65;;
51224;SDS011;37298;42.688;23.312;2022-12-29T08:55:56;33.08;;;19.10;;
51224;SDS011;37298;42.688;23.312;2022-12-29T08:58:23;24.55;;;18.20;;
51224;SDS011;37298;42.688;23.312;2022-12-29T09:00:51;25.45;;;18.50;;
51224;SDS011;37298;42.688;23.312;2022-12-29T09:03:18;28.38;;;19.08;;
51224;SDS011;37298;42.688;23.312;2022-12-29T09:05:47;28.75;;;18.02;;
51224;SDS011;37298;42.688;23.312;2022-12-29T09:08:15;27.13;;;18.15;;
51224;SDS011;37298;42.688;23.312;2022-12-29T09:10:42;27.67;;;19.08;;
51224;SDS011;37298;42.688;23.312;2022-12-29T09:13:08;25.80;;;18.70;;
51224;SDS011;37298;42.688;23.312;2022-12-29T09:15:35;25.80;;;18.73;;
51224;SDS011;37298;42.688;23.312;2022-12-29T09:18:02;30.77;;;19.45;;
51224;SDS011;37298;42.688;23.312;2022-12-29T09:20:29;25.30;;;19.70;;
51224;SDS011;37298;42.688;23.312;2022-12-29T09:22:56;28.40;;;21.08;;
51224;SDS011;37298;42.688;23.312;2022-12-29T09:25:25;26.95;;;20.13;;
51224;SDS011;37298;42.688;23.312;2022-12-29T09:27:52;29.75;;;20.55;;
51224;SDS011;37298;42.688;23.312;2022-12-29T09:30:19;25.00;;;20.00;;
51224;SDS011;37298;42.688;23.312;2022-12-29T09:32:47;31.52;;;20.02;;
51224;SDS011;37298;42.688;23.312;2022-12-29T09:35:14;40.60;;;23.23;;
51224;SDS011;37298;42.688;23.312;2022-12-29T09:37:41;31.00;;;20.52;;
51224;SDS011;37298;42.688;23.312;2022-12-29T09:40:09;28.08;;;20.65;;
51224;SDS011;37298;42.688;23.312;2022-12-29T09:42:45;29.42;;;20.90;;
51224;SDS011;37298;42.688;23.312;2022-12-29T09:45:18;28.92;;;21.60;;
51224;SDS011;37298;42.688;23.312;2022-12-29T09:47:46;30.70;;;22.48;;
51224;SDS011;37298;42.688;23.312;2022-12-29T09:50:16;27.58;;;21.40;;
51224;SDS011;37298;42.688;23.312;2022-12-29T09:52:46;29.80;;;21.40;;
51224;SDS011;37298;42.688;23.312;2022-12-29T09:57:42;30.85;;;21.40;;
51224;SDS011;37298;42.688;23.312;2022-12-29T10:00:13;26.67;;;21.15;;
51224;SDS011;37298;42.688;23.312;2022-12-29T10:02:41;34.75;;;21.52;;
51224;SDS011;37298;42.688;23.312;2022-12-29T10:05:20;27.15;;;21.50;;
51224;SDS011;37298;42.688;23.312;2022-12-29T10:07:50;28.17;;;22.27;;
51224;SDS011;37298;42.688;23.312;2022-12-29T10:10:22;28.70;;;21.83;;
51224;SDS011;37298;42.688;23.312;2022-12-29T10:12:58;30.20;;;22.42;;
51224;SDS011;37298;42.688;23.312;2022-12-29T10:15:36;29.73;;;20.67;;
51224;SDS011;37298;42.688;23.312;2022-12-29T10:18:08;27.08;;;21.70;;
51224;SDS011;37298;42.688;23.312;2022-12-29T10:20:44;25.10;;;20.65;;
51224;SDS011;37298;42.688;23.312;2022-12-29T10:23:19;26.40;;;19.95;;
51224;SDS011;37298;42.688;23.312;2022-12-29T10:25:49;27.85;;;20.30;;
51224;SDS011;37298;42.688;23.312;2022-12-29T10:28:18;23.42;;;20.52;;
51224;SDS011;37298;42.688;23.312;2022-12-29T10:30:47;26.55;;;20.67;;
51224;SDS011;37298;42.688;23.312;2022-12-29T10:33:17;23.63;;;19.83;;
51224;SDS011;37298;42.688;23.312;2022-12-29T10:35:46;24.20;;;20.70;;
51224;SDS011;37298;42.688;23.312;2022-12-29T10:38:15;23.05;;;19.45;;
51224;SDS011;37298;42.688;23.312;2022-12-29T10:40:46;26.10;;;20.73;;
51224;SDS011;37298;42.688;23.312;2022-12-29T10:43:22;24.92;;;19.48;;
51224;SDS011;37298;42.688;23.312;2022-12-29T10:45:52;29.23;;;19.55;;
51224;SDS011;37298;42.688;23.312;2022-12-29T10:48:21;25.23;;;19.73;;
51224;SDS011;37298;42.688;23.312;2022-12-29T10:50:48;26.38;;;19.92;;
51224;SDS011;37298;42.688;23.312;2022-12-29T10:53:18;23.60;;;19.67;;
51224;SDS011;37298;42.688;23.312;2022-12-29T10:55:45;25.20;;;18.70;;
51224;SDS011;37298;42.688;23.312;2022-12-29T10:58:12;24.23;;;18.88;;
51224;SDS011;37298;42.688;23.312;2022-12-29T11:00:40;24.15;;;18.13;;
51224;SDS011;37298;42.688;23.312;2022-12-29T11:03:15;23.02;;;17.88;;
51224;SDS011;37298;42.688;23.312;2022-12-29T11:05:45;22.08;;;17.08;;
51224;SDS011;37298;42.688;23.312;2022-12-29T11:08:13;25.95;;;18.55;;
51224;SDS011;37298;42.688;23.312;2022-12-29T11:10:42;28.92;;;18.65;;
51224;SDS011;37298;42.688;23.312;2022-12-29T11:13:13;24.08;;;18.00;;
51224;SDS011;37298;42.688;23.312;2022-12-29T11:15:42;22.90;;;18.20;;
51224;SDS011;37298;42.688;23.312;2022-12-29T11:18:21;25.65;;;18.48;;
51224;SDS011;37298;42.688;23.312;2022-12-29T11:20:48;23.30;;;17.23;;
51224;SDS011;37298;42.688;23.312;2022-12-29T11:23:23;26.38;;;19.23;;
51224;SDS011;37298;42.688;23.312;2022-12-29T11:26:05;21.25;;;18.45;;
51224;SDS011;37298;42.688;23.312;2022-12-29T11:28:32;23.88;;;18.50;;
51224;SDS011;37298;42.688;23.312;2022-12-29T11:30:59;26.05;;;18.45;;
51224;SDS011;37298;42.688;23.312;2022-12-29T11:33:28;26.40;;;18.83;;
51224;SDS011;37298;42.688;23.312;2022-12-29T11:35:56;32.30;;;19.55;;
51224;SDS011;37298;42.688;23.312;2022-12-29T11:38:25;23.58;;;19.42;;
51224;SDS011;37298;42.688;23.312;2022-12-29T11:40:53;22.08;;;17.30;;
51224;SDS011;37298;42.688;23.312;2022-12-29T11:43:21;22.50;;;18.02;;
51224;SDS011;37298;42.688;23.312;2022-12-29T11:45:51;23.70;;;17.95;;
51224;SDS011;37298;42.688;23.312;2022-12-29T11:48:20;21.73;;;17.40;;
51224;SDS011;37298;42.688;23.312;2022-12-29T11:50:50;26.73;;;18.02;;
51224;SDS011;37298;42.688;23.312;2022-12-29T11:53:20;24.40;;;18.70;;
51224;SDS011;37298;42.688;23.312;2022-12-29T11:55:51;21.80;;;17.55;;
51224;SDS011;37298;42.688;23.312;2022-12-29T11:58:19;21.67;;;17.90;;
51224;SDS011;37298;42.688;23.312;2022-12-29T12:00:46;26.25;;;18.63;;
51224;SDS011;37298;42.688;23.312;2022-12-29T12:03:16;24.50;;;18.88;;
51224;SDS011;37298;42.688;23.312;2022-12-29T12:05:45;26.90;;;18.92;;
51224;SDS011;37298;42.688;23.312;2022-12-29T12:08:17;25.83;;;18.38;;
51224;SDS011;37298;42.688;23.312;2022-12-29T12:10:47;27.23;;;18.50;;
51224;SDS011;37298;42.688;23.312;2022-12-29T12:13:20;28.65;;;18.88;;
51224;SDS011;37298;42.688;23.312;2022-12-29T12:15:51;23.50;;;17.85;;
51224;SDS011;37298;42.688;23.312;2022-12-29T12:18:23;23.92;;;17.20;;
51224;SDS011;37298;42.688;23.312;2022-12-29T12:20:52;28.58;;;17.90;;
51224;SDS011;37298;42.688;23.312;2022-12-29T12:23:35;37.33;;;19.15;;
51224;SDS011;37298;42.688;23.312;2022-12-29T12:26:04;29.48;;;18.50;;
51224;SDS011;37298;42.688;23.312;2022-12-29T12:28:36;25.80;;;18.10;;
51224;SDS011;37298;42.688;23.312;2022-12-29T12:31:05;26.52;;;17.23;;
51224;SDS011;37298;42.688;23.312;2022-12-29T12:33:34;27.30;;;16.83;;
51224;SDS011;37298;42.688;23.312;2022-12-29T12:36:17;22.95;;;15.63;;
51224;SDS011;37298;42.688;23.312;2022-12-29T12:38:50;28.05;;;16.80;;
51224;SDS011;37298;42.688;23.312;2022-12-29T12:41:20;23.30;;;16.60;;
51224;SDS011;37298;42.688;23.312;2022-12-29T12:43:53;26.65;;;17.45;;
51224;SDS011;37298;42.688;23.312;2022-12-29T12:46:37;27.50;;;17.63;;
51224;SDS011;37298;42.688;23.312;2022-12-29T12:49:12;30.98;;;18.17;;
51224;SDS011;37298;42.688;23.312;2022-12-29T12:51:43;27.15;;;17.27;;
51224;SDS011;37298;42.688;23.312;2022-12-29T12:54:17;24.42;;;16.80;;
51224;SDS011;37298;42.688;23.312;2022-12-29T12:56:47;28.88;;;17.23;;
51224;SDS011;37298;42.688;23.312;2022-12-29T12:59:20;30.27;;;18.48;;
51224;SDS011;37298;42.688;23.312;2022-12-29T13:01:51;30.63;;;18.25;;
51224;SDS011;37298;42.688;23.312;2022-12-29T13:04:33;23.58;;;17.40;;
51224;SDS011;37298;42.688;23.312;2022-12-29T13:07:07;29.38;;;17.35;;
51224;SDS011;37298;42.688;23.312;2022-12-29T13:09:45;39.92;;;19.75;;
51224;SDS011;37298;42.688;23.312;2022-12-29T13:12:18;26.63;;;19.25;;
51224;SDS011;37298;42.688;23.312;2022-12-29T13:14:51;29.10;;;17.23;;
51224;SDS011;37298;42.688;23.312;2022-12-29T13:17:22;30.52;;;17.60;;
51224;SDS011;37298;42.688;23.312;2022-12-29T13:19:52;25.40;;;17.25;;
51224;SDS011;37298;42.688;23.312;2022-12-29T13:22:21;23.80;;;17.17;;
51224;SDS011;37298;42.688;23.312;2022-12-29T13:24:55;25.95;;;17.48;;
51224;SDS011;37298;42.688;23.312;2022-12-29T13:27:26;28.10;;;17.50;;
51224;SDS011;37298;42.688;23.312;2022-12-29T13:29:57;26.98;;;18.10;;
51224;SDS011;37298;42.688;23.312;2022-12-29T13:32:28;26.77;;;18.73;;
51224;SDS011;37298;42.688;23.312;2022-12-29T13:35:02;23.70;;;17.80;;
51224;SDS011;37298;42.688;23.312;2022-12-29T13:37:33;24.92;;;18.77;;
51224;SDS011;37298;42.688;23.312;2022-12-29T13:40:04;27.90;;;18.88;;
51224;SDS011;37298;42.688;23.312;2022-12-29T13:42:36;31.38;;;20.52;;
51224;SDS011;37298;42.688;23.312;2022-12-29T13:45:04;26.55;;;19.08;;
51224;SDS011;37298;42.688;23.312;2022-12-29T13:49:59;28.42;;;18.90;;
51224;SDS011;37298;42.688;23.312;2022-12-29T13:52:29;28.42;;;18.83;;
51224;SDS011;37298;42.688;23.312;2022-12-29T13:55:01;26.85;;;17.92;;
51224;SDS011;37298;42.688;23.312;2022-12-29T13:57:35;29.98;;;20.58;;
51224;SDS011;37298;42.688;23.312;2022-12-29T14:00:10;33.25;;;19.10;;
51224;SDS011;37298;42.688;23.312;2022-12-29T14:02:42;36.85;;;20.27;;
51224;SDS011;37298;42.688;23.312;2022-12-29T14:05:27;33.72;;;21.35;;
51224;SDS011;37298;42.688;23.312;2022-12-29T14:07:56;32.58;;;19.67;;
51224;SDS011;37298;42.688;23.312;2022-12-29T14:10:26;29.15;;;18.38;;
51224;SDS011;37298;42.688;23.312;2022-12-29T14:13:01;34.17;;;20.10;;
51224;SDS011;37298;42.688;23.312;2022-12-29T14:15:31;33.42;;;20.77;;
51224;SDS011;37298;42.688;23.312;2022-12-29T14:18:09;32.63;;;21.00;;
51224;SDS011;37298;42.688;23.312;2022-12-29T14:20:38;36.70;;;19.38;;
51224;SDS011;37298;42.688;23.312;2022-12-29T14:23:15;31.58;;;19.13;;
51224;SDS011;37298;42.688;23.312;2022-12-29T14:25:53;36.25;;;21.02;;
51224;SDS011;37298;42.688;23.312;2022-12-29T14:28:23;35.17;;;20.25;;
51224;SDS011;37298;42.688;23.312;2022-12-29T14:30:50;32.17;;;19.73;;
51224;SDS011;37298;42.688;23.312;2022-12-29T14:33:18;37.08;;;19.92;;
51224;SDS011;37298;42.688;23.312;2022-12-29T14:35:47;33.75;;;20.00;;
51224;SDS011;37298;42.688;23.312;2022-12-29T14:41:18;29.73;;;18.83;;
51224;SDS011;37298;42.688;23.312;2022-12-29T14:43:58;29.88;;;18.92;;
51224;SDS011;37298;42.688;23.312;2022-12-29T14:46:40;32.97;;;19.15;;
51224;SDS011;37298;42.688;23.312;2022-12-29T14:49:08;30.77;;;18.63;;
51224;SDS011;37298;42.688;23.312;2022-12-29T14:51:37;33.60;;;20.10;;
51224;SDS011;37298;42.688;23.312;2022-12-29T14:56:46;37.25;;;19.63;;